Time;durP1;ratioP1;P1;durP2;ratioP2;P2;SDS_P1;SDS_P2;PMS_P1;PMS_P2;Temp;Humidity;BMP_temperature;BMP_pressure;BME280_temperature;BME280_humidity;BME280_pressure;Samples;Min_cycle;Max_cycle;Signal;HPM_P1;HPM_P2
2023/12/16 00:00:59;;;;;;;7.95;2.17;;;;;;;;;;4998661;28;20036;-62
2023/12/16 00:03:26;;;;;;;10.38;1.83;;;;;;;;;;4998195;28;20039;-62
2023/12/16 00:05:53;;;;;;;6.15;1.60;;;;;;;;;;4997146;28;20033;-62
2023/12/16 00:08:19;;;;;;;8.85;2.40;;;;;;;;;;4997922;28;20048;-62
2023/12/16 00:10:45;;;;;;;8.25;1.60;;;;;;;;;;4998008;28;20029;-62
2023/12/16 00:13:11;;;;;;;8.02;1.67;;;;;;;;;;4998206;28;20045;-62
2023/12/16 00:15:37;;;;;;;9.73;1.92;;;;;;;;;;4998246;28;21939;-62
2023/12/16 00:18:04;;;;;;;10.38;2.00;;;;;;;;;;4999547;28;20118;-62
2023/12/16 00:20:30;;;;;;;11.68;1.90;;;;;;;;;;4997725;28;20025;-62
2023/12/16 00:22:56;;;;;;;7.88;1.80;;;;;;;;;;4998186;28;20033;-62
2023/12/16 00:25:22;;;;;;;6.22;1.67;;;;;;;;;;4998562;28;20719;-62
2023/12/16 00:27:48;;;;;;;11.02;1.80;;;;;;;;;;4997852;28;20041;-62
2023/12/16 00:30:14;;;;;;;10.10;1.90;;;;;;;;;;4997543;28;20036;-62
2023/12/16 00:32:40;;;;;;;11.20;2.40;;;;;;;;;;4998206;28;20106;-62
2023/12/16 00:35:09;;;;;;;7.70;2.05;;;;;;;;;;4998087;28;20044;-61
2023/12/16 00:37:36;;;;;;;9.82;1.95;;;;;;;;;;4998751;28;20163;-61
2023/12/16 00:40:02;;;;;;;12.68;1.80;;;;;;;;;;4998742;28;20132;-62
2023/12/16 00:42:29;;;;;;;8.77;2.00;;;;;;;;;;4998978;28;20029;-61
2023/12/16 00:44:56;;;;;;;10.23;2.65;;;;;;;;;;4998285;28;20144;-61
2023/12/16 00:47:23;;;;;;;6.55;1.60;;;;;;;;;;4998515;28;20650;-61
2023/12/16 00:49:49;;;;;;;10.63;1.88;;;;;;;;;;4998460;28;20156;-61
2023/12/16 00:52:15;;;;;;;8.43;1.83;;;;;;;;;;4998668;28;20171;-61
2023/12/16 00:54:41;;;;;;;9.75;1.88;;;;;;;;;;4997776;28;20030;-61
2023/12/16 00:57:07;;;;;;;7.55;1.98;;;;;;;;;;4998745;28;20030;-61
2023/12/16 00:59:33;;;;;;;10.63;2.10;;;;;;;;;;4997202;28;20100;-61
2023/12/16 01:01:59;;;;;;;7.40;1.58;;;;;;;;;;4998393;28;20070;-61
2023/12/16 01:04:25;;;;;;;11.82;2.85;;;;;;;;;;4998590;28;20042;-61
2023/12/16 01:06:52;;;;;;;9.45;1.60;;;;;;;;;;4998857;28;20029;-61
2023/12/16 01:09:18;;;;;;;15.98;3.40;;;;;;;;;;4998647;28;20037;-61
2023/12/16 01:11:44;;;;;;;8.15;1.55;;;;;;;;;;4998392;28;20130;-61
2023/12/16 01:14:10;;;;;;;9.45;2.00;;;;;;;;;;4998179;28;20092;-61
2023/12/16 01:16:36;;;;;;;9.02;1.95;;;;;;;;;;4998422;28;20033;-61
2023/12/16 01:19:02;;;;;;;8.18;1.80;;;;;;;;;;4998403;28;20045;-61
2023/12/16 01:21:28;;;;;;;10.57;1.70;;;;;;;;;;4999090;28;20018;-61
2023/12/16 01:23:54;;;;;;;7.65;1.58;;;;;;;;;;4998287;28;20104;-61
2023/12/16 01:26:20;;;;;;;13.77;3.15;;;;;;;;;;4997477;28;20203;-61
2023/12/16 01:28:46;;;;;;;5.97;1.73;;;;;;;;;;4998289;28;20045;-61
2023/12/16 01:31:12;;;;;;;9.95;2.15;;;;;;;;;;4997836;28;20038;-61
2023/12/16 01:33:38;;;;;;;8.70;2.00;;;;;;;;;;4998231;28;20048;-61
2023/12/16 01:36:04;;;;;;;11.40;2.05;;;;;;;;;;4998164;28;20033;-61
2023/12/16 01:38:31;;;;;;;6.72;1.73;;;;;;;;;;4998809;28;21211;-61
2023/12/16 01:40:57;;;;;;;13.30;1.70;;;;;;;;;;4998344;28;20420;-61
2023/12/16 01:43:23;;;;;;;8.70;1.65;;;;;;;;;;5010845;28;20405;-61
2023/12/16 01:45:53;;;;;;;9.88;1.88;;;;;;;;;;4998214;28;20552;-61
2023/12/16 01:48:19;;;;;;;9.90;1.50;;;;;;;;;;4998758;28;20033;-61
2023/12/16 01:50:45;;;;;;;7.65;1.60;;;;;;;;;;4997965;28;20140;-61
2023/12/16 01:53:11;;;;;;;6.65;1.30;;;;;;;;;;4997133;28;20042;-61
2023/12/16 01:55:37;;;;;;;10.02;1.83;;;;;;;;;;4998001;28;20043;-61
2023/12/16 01:58:04;;;;;;;12.30;1.85;;;;;;;;;;4997926;28;20073;-61
2023/12/16 02:00:30;;;;;;;9.55;1.98;;;;;;;;;;4996340;28;20033;-61
2023/12/16 02:02:56;;;;;;;11.88;2.35;;;;;;;;;;4996917;28;20746;-61
2023/12/16 02:05:22;;;;;;;8.27;1.55;;;;;;;;;;4998132;28;20079;-61
2023/12/16 02:07:48;;;;;;;8.07;1.25;;;;;;;;;;4997334;28;20049;-61
2023/12/16 02:10:14;;;;;;;10.68;1.85;;;;;;;;;;4996693;28;20049;-61
2023/12/16 02:12:42;;;;;;;8.05;1.67;;;;;;;;;;4997001;28;20034;-61
2023/12/16 02:15:08;;;;;;;8.93;1.70;;;;;;;;;;4995461;28;20207;-61
2023/12/16 02:17:34;;;;;;;10.35;1.83;;;;;;;;;;4997357;28;20840;-61
2023/12/16 02:20:00;;;;;;;8.13;1.65;;;;;;;;;;4996322;28;20474;-61
2023/12/16 02:22:26;;;;;;;12.32;2.08;;;;;;;;;;4997573;28;20104;-61
2023/12/16 02:24:53;;;;;;;9.55;1.70;;;;;;;;;;4998241;28;20049;-61
2023/12/16 02:27:19;;;;;;;7.10;1.75;;;;;;;;;;4999780;28;20029;-61
2023/12/16 02:29:45;;;;;;;7.70;1.80;;;;;;;;;;5001515;28;20022;-61
2023/12/16 02:32:11;;;;;;;7.07;1.55;;;;;;;;;;5001352;28;20057;-61
2023/12/16 02:34:37;;;;;;;9.30;1.98;;;;;;;;;;5001107;28;20025;-62
2023/12/16 02:37:06;;;;;;;9.88;1.73;;;;;;;;;;5001412;28;20100;-61
2023/12/16 02:39:33;;;;;;;16.02;2.92;;;;;;;;;;5001709;28;20184;-61
2023/12/16 02:41:59;;;;;;;10.57;2.10;;;;;;;;;;5001273;28;20034;-61
2023/12/16 02:44:25;;;;;;;11.32;2.00;;;;;;;;;;5001190;28;20123;-61
2023/12/16 02:46:51;;;;;;;9.32;1.55;;;;;;;;;;5000012;28;20042;-61
2023/12/16 02:49:17;;;;;;;13.07;2.25;;;;;;;;;;4999669;28;20042;-61
2023/12/16 02:51:43;;;;;;;12.65;2.08;;;;;;;;;;5001117;28;20099;-61
2023/12/16 02:54:09;;;;;;;10.02;2.42;;;;;;;;;;5000958;28;20033;-61
2023/12/16 02:56:35;;;;;;;13.15;2.15;;;;;;;;;;5000776;28;20037;-61
2023/12/16 02:59:02;;;;;;;8.75;1.90;;;;;;;;;;5000410;28;20044;-61
2023/12/16 03:01:28;;;;;;;13.27;2.38;;;;;;;;;;5001099;28;20333;-61
2023/12/16 03:03:54;;;;;;;14.57;2.97;;;;;;;;;;4999967;28;20042;-61
2023/12/16 03:06:20;;;;;;;14.75;2.20;;;;;;;;;;5000919;28;20863;-61
2023/12/16 03:08:46;;;;;;;10.75;2.13;;;;;;;;;;5001089;28;20037;-61
2023/12/16 03:11:13;;;;;;;10.88;1.65;;;;;;;;;;5000140;28;20934;-61
2023/12/16 03:13:39;;;;;;;12.15;2.22;;;;;;;;;;5001570;28;20954;-61
2023/12/16 03:16:05;;;;;;;14.95;2.53;;;;;;;;;;4999731;28;20026;-61
2023/12/16 03:18:31;;;;;;;13.10;2.08;;;;;;;;;;5000672;28;20124;-61
2023/12/16 03:20:57;;;;;;;12.77;1.65;;;;;;;;;;5000294;28;20079;-61
2023/12/16 03:23:23;;;;;;;12.02;2.03;;;;;;;;;;5000200;28;20044;-61
2023/12/16 03:25:49;;;;;;;15.73;2.05;;;;;;;;;;5000705;28;20553;-61
2023/12/16 03:28:15;;;;;;;12.25;1.95;;;;;;;;;;5000561;28;21571;-61
2023/12/16 03:30:41;;;;;;;9.40;2.42;;;;;;;;;;4999856;28;20160;-61
2023/12/16 03:33:08;;;;;;;10.77;2.58;;;;;;;;;;5000515;28;20123;-61
2023/12/16 03:35:34;;;;;;;13.18;2.40;;;;;;;;;;5000251;28;20021;-61
2023/12/16 03:38:00;;;;;;;14.20;2.33;;;;;;;;;;4999852;28;20038;-61
2023/12/16 03:40:26;;;;;;;14.35;2.40;;;;;;;;;;4999867;28;20038;-61
2023/12/16 03:42:53;;;;;;;10.25;1.85;;;;;;;;;;4999895;28;20104;-61
2023/12/16 03:45:19;;;;;;;13.30;2.92;;;;;;;;;;5000459;28;20037;-61
2023/12/16 03:47:45;;;;;;;14.50;2.40;;;;;;;;;;4999724;28;20057;-61
2023/12/16 03:50:11;;;;;;;9.32;2.20;;;;;;;;;;4999840;28;20050;-61
2023/12/16 03:52:38;;;;;;;13.35;2.90;;;;;;;;;;4999838;28;20033;-61
2023/12/16 03:55:04;;;;;;;14.27;2.15;;;;;;;;;;4999658;28;20030;-61
2023/12/16 03:57:32;;;;;;;12.75;2.45;;;;;;;;;;4999935;28;20685;-61
2023/12/16 03:59:58;;;;;;;12.75;2.78;;;;;;;;;;5000010;28;20119;-61
2023/12/16 04:02:24;;;;;;;18.13;2.88;;;;;;;;;;4999901;28;20033;-61
2023/12/16 04:04:51;;;;;;;12.10;2.20;;;;;;;;;;4999597;28;20036;-61
2023/12/16 04:07:17;;;;;;;10.07;2.20;;;;;;;;;;4999866;28;20041;-61
2023/12/16 04:09:44;;;;;;;8.35;2.00;;;;;;;;;;4999455;28;20712;-61
2023/12/16 04:12:10;;;;;;;14.07;2.20;;;;;;;;;;4999805;28;20122;-61
2023/12/16 04:14:40;;;;;;;10.18;2.30;;;;;;;;;;5000220;28;20394;-61
2023/12/16 04:17:06;;;;;;;12.10;2.00;;;;;;;;;;5000013;28;20041;-61
2023/12/16 04:19:32;;;;;;;16.92;2.78;;;;;;;;;;4999785;28;20151;-61
2023/12/16 04:21:58;;;;;;;15.23;2.50;;;;;;;;;;5000585;28;20735;-61
2023/12/16 04:24:24;;;;;;;8.93;2.20;;;;;;;;;;4998880;28;20068;-61
2023/12/16 04:26:51;;;;;;;8.98;2.30;;;;;;;;;;4998346;28;20038;-61
2023/12/16 04:29:17;;;;;;;10.27;2.00;;;;;;;;;;4999624;28;20064;-61
2023/12/16 04:31:43;;;;;;;14.50;2.67;;;;;;;;;;4998550;28;20088;-61
2023/12/16 04:34:09;;;;;;;16.00;3.00;;;;;;;;;;4999040;28;20049;-61
2023/12/16 04:36:35;;;;;;;12.85;2.70;;;;;;;;;;4997901;28;20439;-61
2023/12/16 04:39:07;;;;;;;14.50;3.08;;;;;;;;;;4999164;28;21712;-61
2023/12/16 04:41:33;;;;;;;23.88;2.83;;;;;;;;;;4998600;28;20021;-61
2023/12/16 04:43:59;;;;;;;15.68;2.90;;;;;;;;;;4999108;28;20924;-61
2023/12/16 04:46:26;;;;;;;12.63;2.50;;;;;;;;;;4998448;28;21516;-61
2023/12/16 04:48:52;;;;;;;10.52;2.33;;;;;;;;;;4998303;28;20037;-61
2023/12/16 04:51:20;;;;;;;14.30;2.60;;;;;;;;;;4998264;28;20057;-61
2023/12/16 04:53:46;;;;;;;13.07;2.63;;;;;;;;;;4998888;28;20029;-61
2023/12/16 04:56:12;;;;;;;14.68;2.28;;;;;;;;;;4997887;28;20041;-61
2023/12/16 04:58:38;;;;;;;17.83;2.65;;;;;;;;;;4997607;28;20029;-61
2023/12/16 05:01:04;;;;;;;15.55;3.00;;;;;;;;;;4997373;28;20068;-61
2023/12/16 05:03:33;;;;;;;15.30;3.00;;;;;;;;;;4998881;28;20030;-61
2023/12/16 05:06:00;;;;;;;14.18;3.33;;;;;;;;;;4998573;28;20118;-61
2023/12/16 05:08:26;;;;;;;14.40;2.70;;;;;;;;;;4998727;28;20121;-61
2023/12/16 05:10:52;;;;;;;14.18;2.97;;;;;;;;;;4993505;28;20116;-61
2023/12/16 05:13:18;;;;;;;16.73;2.92;;;;;;;;;;4997902;28;20107;-61
2023/12/16 05:15:44;;;;;;;15.60;2.97;;;;;;;;;;4998103;28;21784;-61
2023/12/16 05:18:10;;;;;;;15.50;3.20;;;;;;;;;;4998568;28;20056;-61
2023/12/16 05:20:36;;;;;;;12.65;3.30;;;;;;;;;;4998823;28;20035;-61
2023/12/16 05:23:03;;;;;;;14.65;2.90;;;;;;;;;;4998606;28;20041;-61
2023/12/16 05:25:29;;;;;;;14.98;3.35;;;;;;;;;;4997676;28;20030;-61
2023/12/16 05:27:56;;;;;;;15.23;3.10;;;;;;;;;;4998741;28;20034;-61
2023/12/16 05:30:22;;;;;;;17.70;3.75;;;;;;;;;;4996424;28;20030;-61
2023/12/16 05:32:48;;;;;;;17.20;3.78;;;;;;;;;;4998463;28;21857;-61
2023/12/16 05:35:15;;;;;;;15.88;3.20;;;;;;;;;;4998524;28;20033;-61
2023/12/16 05:37:41;;;;;;;20.30;3.63;;;;;;;;;;4998479;28;20036;-61
2023/12/16 05:40:07;;;;;;;14.38;3.03;;;;;;;;;;4998240;28;20029;-61
2023/12/16 05:42:33;;;;;;;16.70;3.35;;;;;;;;;;4998689;28;20068;-61
2023/12/16 05:44:59;;;;;;;22.00;3.47;;;;;;;;;;4998711;28;20053;-61
2023/12/16 05:47:25;;;;;;;15.55;3.30;;;;;;;;;;4998201;28;20508;-61
2023/12/16 05:49:51;;;;;;;19.40;3.78;;;;;;;;;;4997214;28;20206;-61
2023/12/16 05:52:17;;;;;;;18.38;3.45;;;;;;;;;;4998539;28;20031;-61
2023/12/16 05:54:43;;;;;;;21.02;3.63;;;;;;;;;;4997315;28;20025;-61
2023/12/16 05:57:09;;;;;;;21.55;4.40;;;;;;;;;;4997233;28;21028;-61
2023/12/16 05:59:36;;;;;;;16.25;3.25;;;;;;;;;;4998399;28;20033;-61
2023/12/16 06:02:02;;;;;;;20.30;4.35;;;;;;;;;;5001379;28;20475;-61
2023/12/16 06:04:28;;;;;;;20.88;5.45;;;;;;;;;;5002922;28;20033;-61
2023/12/16 06:06:54;;;;;;;18.05;4.35;;;;;;;;;;5002174;28;20030;-61
2023/12/16 06:09:20;;;;;;;19.67;4.30;;;;;;;;;;5002686;28;20033;-61
2023/12/16 06:11:46;;;;;;;24.05;5.78;;;;;;;;;;5002582;28;20043;-61
2023/12/16 06:14:12;;;;;;;21.88;5.05;;;;;;;;;;5003020;28;20037;-61
2023/12/16 06:16:38;;;;;;;19.67;4.72;;;;;;;;;;5001550;28;20048;-61
2023/12/16 06:19:04;;;;;;;26.00;5.53;;;;;;;;;;5002340;28;20033;-61
2023/12/16 06:21:30;;;;;;;21.30;5.65;;;;;;;;;;5002227;28;20111;-61
2023/12/16 06:24:00;;;;;;;28.30;4.72;;;;;;;;;;5001494;28;20029;-61
2023/12/16 06:26:26;;;;;;;21.02;4.30;;;;;;;;;;5002590;28;20037;-61
2023/12/16 06:28:52;;;;;;;26.02;4.68;;;;;;;;;;5002334;28;20128;-61
2023/12/16 06:31:19;;;;;;;21.83;5.95;;;;;;;;;;5001662;28;20049;-61
2023/12/16 06:33:45;;;;;;;21.88;5.80;;;;;;;;;;5000136;28;20040;-61
2023/12/16 06:36:11;;;;;;;27.65;5.53;;;;;;;;;;5002322;28;20069;-61
2023/12/16 06:38:37;;;;;;;26.38;5.85;;;;;;;;;;5002168;28;20065;-61
2023/12/16 06:41:03;;;;;;;23.20;6.25;;;;;;;;;;5001974;28;20408;-61
2023/12/16 06:43:30;;;;;;;22.42;5.30;;;;;;;;;;5001890;28;20055;-61
2023/12/16 06:45:56;;;;;;;25.63;5.57;;;;;;;;;;5002143;28;21069;-61
2023/12/16 06:48:22;;;;;;;28.02;5.22;;;;;;;;;;5000452;28;20029;-61
2023/12/16 06:50:54;;;;;;;33.05;6.75;;;;;;;;;;5000596;28;20081;-61
2023/12/16 06:53:20;;;;;;;31.27;7.95;;;;;;;;;;5001733;28;20029;-61
2023/12/16 06:55:46;;;;;;;27.73;5.95;;;;;;;;;;5001737;28;21374;-61
2023/12/16 06:58:12;;;;;;;26.10;6.40;;;;;;;;;;5001623;28;21068;-61
2023/12/16 07:00:38;;;;;;;26.15;6.43;;;;;;;;;;5001348;28;20780;-61
2023/12/16 07:03:04;;;;;;;35.42;7.93;;;;;;;;;;5001175;28;20596;-61
2023/12/16 07:05:33;;;;;;;26.50;6.35;;;;;;;;;;5000495;28;20029;-61
2023/12/16 07:08:00;;;;;;;31.45;6.57;;;;;;;;;;5001316;28;20099;-61
2023/12/16 07:10:26;;;;;;;33.95;6.80;;;;;;;;;;5000971;28;20160;-61
2023/12/16 07:12:52;;;;;;;33.88;7.55;;;;;;;;;;5001143;28;20065;-61
2023/12/16 07:15:19;;;;;;;35.65;6.85;;;;;;;;;;5001209;28;20125;-61
2023/12/16 07:17:46;;;;;;;32.58;7.38;;;;;;;;;;5000763;28;20032;-61
2023/12/16 07:20:12;;;;;;;26.55;6.45;;;;;;;;;;5000279;28;20108;-61
2023/12/16 07:22:38;;;;;;;35.85;7.30;;;;;;;;;;5000913;28;20029;-61
2023/12/16 07:25:04;;;;;;;29.10;7.60;;;;;;;;;;5001384;28;20041;-61
2023/12/16 07:27:30;;;;;;;26.15;6.18;;;;;;;;;;5002055;28;22057;-61
2023/12/16 07:29:57;;;;;;;27.15;7.20;;;;;;;;;;5000442;28;20038;-61
2023/12/16 07:32:23;;;;;;;30.85;7.75;;;;;;;;;;5000613;28;20453;-61
2023/12/16 07:34:50;;;;;;;27.45;6.50;;;;;;;;;;5001268;28;20436;-61
2023/12/16 07:37:16;;;;;;;32.28;7.63;;;;;;;;;;5000761;28;20473;-61
2023/12/16 07:39:42;;;;;;;24.67;7.10;;;;;;;;;;5000231;28;20026;-61
2023/12/16 07:42:08;;;;;;;27.10;7.18;;;;;;;;;;5000626;28;20933;-61
2023/12/16 07:44:34;;;;;;;30.33;6.95;;;;;;;;;;5001187;28;20044;-61
2023/12/16 07:47:01;;;;;;;29.30;7.57;;;;;;;;;;5000132;28;20120;-61
2023/12/16 07:49:27;;;;;;;27.23;6.95;;;;;;;;;;4999471;28;20502;-61
2023/12/16 07:51:54;;;;;;;27.85;7.05;;;;;;;;;;4999344;28;20057;-61
2023/12/16 07:54:22;;;;;;;28.58;7.20;;;;;;;;;;4999682;28;20080;-61
2023/12/16 07:56:48;;;;;;;29.13;7.28;;;;;;;;;;5013164;28;20158;-61
2023/12/16 07:59:14;;;;;;;34.78;7.63;;;;;;;;;;4999959;28;20500;-61
2023/12/16 08:01:40;;;;;;;29.75;7.60;;;;;;;;;;4998428;28;20057;-61
2023/12/16 08:04:06;;;;;;;29.00;7.13;;;;;;;;;;5000077;28;20875;-61
2023/12/16 08:06:32;;;;;;;27.58;7.10;;;;;;;;;;5000064;28;20398;-61
2023/12/16 08:08:58;;;;;;;36.33;7.97;;;;;;;;;;4999291;28;20036;-61
2023/12/16 08:11:24;;;;;;;25.83;7.60;;;;;;;;;;4998382;28;20034;-61
2023/12/16 08:13:50;;;;;;;23.23;7.13;;;;;;;;;;4994635;28;20821;-61
2023/12/16 08:16:16;;;;;;;34.95;7.10;;;;;;;;;;4999334;28;20041;-61
2023/12/16 08:18:42;;;;;;;32.55;8.43;;;;;;;;;;4998021;28;20033;-61
2023/12/16 08:21:08;;;;;;;35.78;6.82;;;;;;;;;;4999292;28;20026;-61
2023/12/16 08:23:34;;;;;;;34.50;8.48;;;;;;;;;;4997609;28;20038;-61
2023/12/16 08:26:01;;;;;;;33.03;9.30;;;;;;;;;;4997487;28;20052;-61
2023/12/16 08:28:27;;;;;;;27.13;8.45;;;;;;;;;;4998733;28;20769;-61
2023/12/16 08:30:53;;;;;;;35.85;8.05;;;;;;;;;;4998387;28;21038;-61
2023/12/16 08:33:20;;;;;;;45.85;9.38;;;;;;;;;;4997861;28;20124;-61
2023/12/16 08:35:46;;;;;;;30.70;8.40;;;;;;;;;;4997491;28;20048;-61
2023/12/16 08:38:12;;;;;;;35.92;8.88;;;;;;;;;;4997905;28;20034;-61
2023/12/16 08:40:39;;;;;;;44.35;8.25;;;;;;;;;;4998110;28;20083;-61
2023/12/16 08:43:05;;;;;;;34.22;7.95;;;;;;;;;;4997457;28;20044;-61
2023/12/16 08:45:31;;;;;;;28.55;6.65;;;;;;;;;;4998491;28;20033;-61
2023/12/16 08:47:57;;;;;;;36.70;8.43;;;;;;;;;;4999330;28;20029;-61
2023/12/16 08:50:23;;;;;;;37.85;9.02;;;;;;;;;;4998158;28;20103;-61
2023/12/16 08:52:49;;;;;;;37.70;9.25;;;;;;;;;;4999431;28;20493;-61
2023/12/16 08:55:15;;;;;;;42.95;9.15;;;;;;;;;;5000040;28;20084;-61
2023/12/16 08:57:41;;;;;;;29.02;7.53;;;;;;;;;;4999559;28;20030;-61
2023/12/16 09:00:11;;;;;;;38.72;8.30;;;;;;;;;;4998379;28;21764;-61
2023/12/16 09:02:37;;;;;;;30.85;8.23;;;;;;;;;;4997981;28;20715;-61
2023/12/16 09:05:03;;;;;;;36.70;7.93;;;;;;;;;;4999536;28;20029;-61
2023/12/16 09:07:29;;;;;;;47.80;10.05;;;;;;;;;;4999215;28;20034;-61
2023/12/16 09:09:55;;;;;;;39.63;8.63;;;;;;;;;;4999768;28;20451;-61
2023/12/16 09:12:21;;;;;;;48.67;9.10;;;;;;;;;;4999963;28;20723;-61
2023/12/16 09:14:47;;;;;;;40.90;8.55;;;;;;;;;;4999879;28;20095;-61
2023/12/16 09:17:13;;;;;;;46.05;9.57;;;;;;;;;;4998314;28;20044;-61
2023/12/16 09:19:39;;;;;;;34.47;8.07;;;;;;;;;;4999009;28;20038;-61
2023/12/16 09:22:05;;;;;;;39.22;8.00;;;;;;;;;;4999814;28;20049;-61
2023/12/16 09:24:33;;;;;;;36.45;8.73;;;;;;;;;;4999659;28;20033;-61
2023/12/16 09:26:59;;;;;;;35.78;8.20;;;;;;;;;;4999051;28;20044;-61
2023/12/16 09:29:25;;;;;;;36.60;8.68;;;;;;;;;;4999226;28;20041;-61
2023/12/16 09:31:51;;;;;;;37.35;8.82;;;;;;;;;;4998876;28;20130;-61
2023/12/16 09:34:17;;;;;;;40.13;9.80;;;;;;;;;;4997980;28;20041;-61
2023/12/16 09:36:43;;;;;;;45.08;9.80;;;;;;;;;;4997729;28;20061;-61
2023/12/16 09:39:10;;;;;;;44.47;8.65;;;;;;;;;;4999784;28;20621;-61
2023/12/16 09:41:44;;;;;;;44.83;8.93;;;;;;;;;;4998657;28;20057;-61
2023/12/16 09:44:11;;;;;;;37.67;8.27;;;;;;;;;;4999212;28;20115;-61
2023/12/16 09:46:38;;;;;;;42.38;8.70;;;;;;;;;;4998195;28;20053;-61
2023/12/16 09:49:04;;;;;;;36.10;8.95;;;;;;;;;;4999071;28;20050;-61
2023/12/16 09:51:30;;;;;;;38.95;7.95;;;;;;;;;;4998534;28;20187;-61
2023/12/16 09:53:57;;;;;;;37.25;9.00;;;;;;;;;;4999083;28;20042;-61
2023/12/16 09:56:23;;;;;;;34.75;9.35;;;;;;;;;;4998970;28;20039;-61
2023/12/16 09:58:51;;;;;;;32.65;8.25;;;;;;;;;;4999053;28;20037;-61
2023/12/16 10:01:17;;;;;;;33.13;8.55;;;;;;;;;;4997776;28;20041;-61
2023/12/16 10:03:46;;;;;;;32.22;9.10;;;;;;;;;;4998971;28;20110;-61
2023/12/16 10:06:12;;;;;;;33.95;8.32;;;;;;;;;;4998937;28;20119;-61
2023/12/16 10:08:39;;;;;;;33.30;9.45;;;;;;;;;;4998120;28;20076;-61
2023/12/16 10:11:05;;;;;;;30.05;8.48;;;;;;;;;;4998122;28;20045;-61
2023/12/16 10:13:32;;;;;;;40.60;8.80;;;;;;;;;;4997225;28;20199;-61
2023/12/16 10:16:01;;;;;;;37.70;8.60;;;;;;;;;;4996290;28;20034;-61
2023/12/16 10:18:27;;;;;;;30.38;8.63;;;;;;;;;;4997145;28;20030;-61
2023/12/16 10:20:55;;;;;;;35.42;8.50;;;;;;;;;;4995145;28;20064;-61
2023/12/16 10:23:23;;;;;;;29.05;7.53;;;;;;;;;;4996554;28;20033;-61
2023/12/16 10:25:49;;;;;;;31.50;7.88;;;;;;;;;;4997981;28;20068;-61
2023/12/16 10:28:15;;;;;;;39.00;9.02;;;;;;;;;;4998516;28;20509;-61
2023/12/16 10:30:42;;;;;;;38.47;9.02;;;;;;;;;;4997811;28;20030;-61
2023/12/16 10:33:09;;;;;;;31.10;8.55;;;;;;;;;;4997920;28;20048;-61
2023/12/16 10:35:36;;;;;;;31.02;8.85;;;;;;;;;;4998918;28;20033;-61
2023/12/16 10:38:04;;;;;;;31.85;8.07;;;;;;;;;;4998855;28;20022;-61
2023/12/16 10:40:31;;;;;;;28.20;8.40;;;;;;;;;;4998253;28;20025;-61
2023/12/16 10:42:57;;;;;;;32.78;8.52;;;;;;;;;;4999203;28;20044;-61
2023/12/16 10:45:25;;;;;;;32.92;10.25;;;;;;;;;;4999395;28;20032;-61
2023/12/16 10:47:54;;;;;;;24.98;8.25;;;;;;;;;;5000628;28;20041;-61
2023/12/16 10:50:21;;;;;;;25.10;7.90;;;;;;;;;;5002861;28;20076;-61
2023/12/16 10:52:53;;;;;;;30.58;9.13;;;;;;;;;;5002093;28;20021;-61
2023/12/16 10:55:23;;;;;;;25.25;8.45;;;;;;;;;;5001825;28;20512;-61
2023/12/16 10:57:50;;;;;;;22.58;8.40;;;;;;;;;;5002761;28;20026;-61
2023/12/16 11:00:28;;;;;;;28.80;8.50;;;;;;;;;;5001998;28;20589;-61
2023/12/16 11:03:16;;;;;;;24.77;8.02;;;;;;;;;;5002670;28;20026;-61
2023/12/16 11:05:49;;;;;;;29.95;8.15;;;;;;;;;;5001474;28;20042;-61
2023/12/16 11:08:16;;;;;;;;;;;;;;;;;;5000040;28;20107;-61
2023/12/16 11:10:42;;;;;;;20.75;7.40;;;;;;;;;;5002032;28;20069;-61
2023/12/16 11:13:08;;;;;;;19.52;7.22;;;;;;;;;;5001761;28;20091;-61
2023/12/16 11:15:35;;;;;;;16.15;7.10;;;;;;;;;;5001343;28;20160;-61
2023/12/16 11:18:07;;;;;;;17.08;6.75;;;;;;;;;;5001379;28;20040;-61
2023/12/16 11:20:53;;;;;;;21.58;7.38;;;;;;;;;;5002285;28;20124;-61
2023/12/16 11:23:19;;;;;;;17.25;6.55;;;;;;;;;;4999370;28;20133;-61
2023/12/16 11:25:49;;;;;;;22.02;7.93;;;;;;;;;;5001496;28;20088;-61
2023/12/16 11:28:15;;;;;;;22.05;6.38;;;;;;;;;;5001610;28;20030;-61
2023/12/16 11:30:41;;;;;;;17.52;7.13;;;;;;;;;;5000615;28;20045;-61
2023/12/16 11:33:07;;;;;;;19.10;6.13;;;;;;;;;;5001014;28;20076;-61
2023/12/16 11:35:42;;;;;;;13.95;5.90;;;;;;;;;;4999728;28;20033;-61
2023/12/16 11:38:08;;;;;;;14.65;6.35;;;;;;;;;;5001139;28;20442;-62
2023/12/16 11:40:46;;;;;;;14.45;6.43;;;;;;;;;;5001110;28;20034;-62
2023/12/16 11:43:12;;;;;;;12.15;5.35;;;;;;;;;;5001042;28;20556;-62
2023/12/16 11:45:39;;;;;;;13.75;5.07;;;;;;;;;;5000862;28;20033;-62
2023/12/16 11:48:06;;;;;;;11.60;4.80;;;;;;;;;;5000477;28;21171;-62
2023/12/16 11:50:34;;;;;;;10.50;4.07;;;;;;;;;;4999098;28;20221;-62
2023/12/16 11:53:00;;;;;;;14.10;4.95;;;;;;;;;;4999988;28;20033;-62
2023/12/16 11:55:26;;;;;;;14.07;4.70;;;;;;;;;;4998502;28;20091;-63
2023/12/16 11:57:55;;;;;;;10.98;4.40;;;;;;;;;;5000731;28;20033;-62
2023/12/16 12:00:22;;;;;;;11.52;4.72;;;;;;;;;;5000786;28;20033;-62
2023/12/16 12:02:51;;;;;;;12.32;4.82;;;;;;;;;;5000158;28;20041;-62
2023/12/16 12:05:18;;;;;;;13.98;4.88;;;;;;;;;;4999428;28;20630;-62
2023/12/16 12:07:44;;;;;;;10.15;5.60;;;;;;;;;;5000209;28;20030;-62
2023/12/16 12:10:10;;;;;;;12.13;4.90;;;;;;;;;;5000833;28;20397;-62
2023/12/16 12:12:37;;;;;;;11.20;5.03;;;;;;;;;;5000925;28;20033;-62
2023/12/16 12:15:03;;;;;;;12.27;4.57;;;;;;;;;;5000848;28;20574;-62
2023/12/16 12:17:29;;;;;;;11.65;4.70;;;;;;;;;;4999837;28;20045;-62
2023/12/16 12:19:55;;;;;;;12.10;4.97;;;;;;;;;;5004986;28;20030;-62
2023/12/16 12:22:22;;;;;;;11.07;4.57;;;;;;;;;;5006845;28;20051;-62
2023/12/16 12:24:48;;;;;;;9.40;4.35;;;;;;;;;;5007380;28;20045;-62
2023/12/16 12:27:14;;;;;;;13.77;5.47;;;;;;;;;;5006817;28;20126;-62
2023/12/16 12:29:53;;;;;;;9.95;4.97;;;;;;;;;;5006837;28;20033;-62
2023/12/16 12:32:19;;;;;;;13.73;5.35;;;;;;;;;;5006993;28;20033;-62
2023/12/16 12:34:45;;;;;;;12.35;5.60;;;;;;;;;;5007237;28;20038;-62
2023/12/16 12:37:11;;;;;;;10.10;5.25;;;;;;;;;;5006733;28;20030;-62
2023/12/16 12:39:37;;;;;;;14.07;5.28;;;;;;;;;;5006944;28;20080;-62
2023/12/16 12:42:04;;;;;;;18.48;6.28;;;;;;;;;;5006865;28;20036;-62
2023/12/16 12:44:30;;;;;;;12.10;6.13;;;;;;;;;;5006483;28;20112;-62
2023/12/16 12:46:57;;;;;;;17.67;6.75;;;;;;;;;;5007504;28;20505;-62
2023/12/16 12:49:32;;;;;;;15.98;5.75;;;;;;;;;;5005602;28;20673;-62
2023/12/16 12:51:58;;;;;;;13.73;6.22;;;;;;;;;;5006826;28;20536;-62
2023/12/16 12:54:25;;;;;;;13.77;6.32;;;;;;;;;;5006863;28;20033;-62
2023/12/16 12:56:52;;;;;;;16.80;7.78;;;;;;;;;;5007224;28;20038;-62
2023/12/16 12:59:18;;;;;;;17.60;6.43;;;;;;;;;;5007023;28;20525;-62
2023/12/16 13:01:45;;;;;;;16.75;7.00;;;;;;;;;;5006842;28;20028;-62
2023/12/16 13:04:12;;;;;;;15.40;7.03;;;;;;;;;;5007316;28;20032;-62
2023/12/16 13:06:38;;;;;;;14.57;6.35;;;;;;;;;;5006980;28;20029;-62
2023/12/16 13:09:04;;;;;;;14.57;5.88;;;;;;;;;;5005716;28;20416;-62
2023/12/16 13:11:31;;;;;;;16.63;6.75;;;;;;;;;;5005987;28;21810;-62
2023/12/16 13:13:57;;;;;;;16.98;6.60;;;;;;;;;;5020458;28;20037;-62
2023/12/16 13:16:23;;;;;;;21.58;8.30;;;;;;;;;;5006675;28;20045;-62
2023/12/16 13:18:52;;;;;;;13.63;6.82;;;;;;;;;;5007135;28;20064;-62
2023/12/16 13:21:19;;;;;;;17.10;7.10;;;;;;;;;;5006632;28;20169;-62
2023/12/16 13:23:45;;;;;;;15.77;6.40;;;;;;;;;;5022443;28;20061;-62
2023/12/16 13:26:12;;;;;;;12.73;5.60;;;;;;;;;;5006137;28;20044;-62
2023/12/16 13:28:40;;;;;;;18.27;6.53;;;;;;;;;;5005029;28;20496;-62
2023/12/16 13:31:06;;;;;;;15.20;6.35;;;;;;;;;;5006596;28;21094;-62
2023/12/16 13:33:32;;;;;;;14.73;5.78;;;;;;;;;;5006703;28;20033;-62
2023/12/16 13:35:58;;;;;;;14.65;6.78;;;;;;;;;;5006766;28;20061;-62
2023/12/16 13:38:24;;;;;;;14.93;5.03;;;;;;;;;;5006400;28;20030;-62
2023/12/16 13:40:52;;;;;;;14.00;5.25;;;;;;;;;;5006837;28;20037;-62
2023/12/16 13:43:18;;;;;;;12.07;5.85;;;;;;;;;;5005694;28;20076;-62
2023/12/16 13:45:44;;;;;;;14.77;6.15;;;;;;;;;;5007229;28;20061;-62
2023/12/16 13:48:10;;;;;;;13.98;5.95;;;;;;;;;;5006427;28;20084;-62
2023/12/16 13:50:36;;;;;;;12.13;5.47;;;;;;;;;;5006120;28;20034;-62
2023/12/16 13:53:02;;;;;;;15.90;5.55;;;;;;;;;;5006404;28;20141;-62
2023/12/16 13:55:28;;;;;;;16.38;6.60;;;;;;;;;;5006467;28;20038;-62
2023/12/16 13:57:54;;;;;;;17.13;5.95;;;;;;;;;;5005937;28;20034;-62
2023/12/16 14:00:22;;;;;;;14.13;5.57;;;;;;;;;;5006134;28;20042;-62
2023/12/16 14:02:48;;;;;;;15.07;6.15;;;;;;;;;;5006316;28;20036;-62
2023/12/16 14:05:14;;;;;;;12.40;5.40;;;;;;;;;;5006428;28;20116;-62
2023/12/16 14:07:40;;;;;;;11.68;5.40;;;;;;;;;;5006194;28;21101;-62
2023/12/16 14:10:06;;;;;;;15.63;5.47;;;;;;;;;;5006303;28;20728;-62
2023/12/16 14:12:32;;;;;;;12.70;4.90;;;;;;;;;;5005657;28;20734;-62
2023/12/16 14:14:58;;;;;;;13.82;5.15;;;;;;;;;;5006596;28;20867;-62
2023/12/16 14:17:24;;;;;;;17.83;5.50;;;;;;;;;;5005943;28;20045;-62
2023/12/16 14:19:50;;;;;;;13.82;5.60;;;;;;;;;;5006301;28;20033;-62
2023/12/16 14:22:18;;;;;;;14.98;5.22;;;;;;;;;;5008424;28;20044;-62
2023/12/16 14:24:44;;;;;;;15.45;5.25;;;;;;;;;;5021710;28;20036;-62
2023/12/16 14:27:10;;;;;;;15.23;5.20;;;;;;;;;;5009949;28;20112;-62